Allen, Washington
Current Conditions -  °F | °C
As of 10:53 PM on Saturday 25 Oct 2014 (Local Time) from KBLI Reporting Station
Light Rain Light Rain  
Wind Chill: 52°   Ceiling: 3200
Heat Index: 52°   Visibility: 10mi
Dew Point: 46°   Wind: 8mph
Humidity: 80%   Direction: 180°S
Pressure: 29.53"   Gusts: NA
Location:  48.5689°N, 122.407°W
Report Text: KBLI 260553Z AUTO 18007KT 10SM -RA BKN032 OVC042 11/08 A2953 RMK AO2 PRESRR SLP008 P0007 60037 T01110078 10139 20100 51056
Loading
Personal Weather Stations






























Interactive Weather Map
Tropical Storm Tracking
New forecast layout! Learn more

10-Day Weather Forecast

Advertisements
Track Severe Weather on mobile